Time;durP1;ratioP1;P1;durP2;ratioP2;P2;SDS_P1;SDS_P2;PMS_P1;PMS_P2;Temp;Humidity;BMP_temperature;BMP_pressure;BME280_temperature;BME280_humidity;BME280_pressure;Samples;Min_cycle;Max_cycle;Signal;HPM_P1;HPM_P2
2023/07/13 00:01:17;;;;;;;2.33;1.63;;;21.10;92.10;;;;;;5030378;28;20030;-69
2023/07/13 00:03:43;;;;;;;3.40;1.42;;;21.10;92.10;;;;;;5030547;28;20262;-69
2023/07/13 00:06:09;;;;;;;3.95;1.42;;;21.00;92.10;;;;;;5030713;28;20104;-69
2023/07/13 00:08:35;;;;;;;2.03;1.17;;;21.00;92.10;;;;;;5029270;28;20366;-70
2023/07/13 00:11:02;;;;;;;2.28;1.23;;;21.10;92.10;;;;;;5030681;28;20056;-70
2023/07/13 00:13:29;;;;;;;3.42;1.30;;;21.00;92.00;;;;;;5030518;28;20036;-69
2023/07/13 00:15:56;;;;;;;4.40;1.63;;;21.00;92.30;;;;;;5030279;28;20041;-70
2023/07/13 00:18:22;;;;;;;4.30;1.38;;;21.00;92.40;;;;;;5029083;28;20112;-70
2023/07/13 00:20:48;;;;;;;4.95;1.30;;;21.00;92.40;;;;;;5029480;28;20104;-71
2023/07/13 00:23:14;;;;;;;2.65;1.30;;;21.00;92.30;;;;;;5030466;28;20434;-69
2023/07/13 00:25:40;;;;;;;2.88;1.33;;;21.00;92.30;;;;;;5030131;28;20506;-69
2023/07/13 00:28:06;;;;;;;3.47;1.33;;;21.00;92.30;;;;;;5030052;28;20038;-70
2023/07/13 00:30:31;;;;;;;8.38;1.58;;;20.90;92.60;;;;;;5029971;28;20140;-70
2023/07/13 00:32:57;;;;;;;6.03;1.20;;;21.00;92.50;;;;;;5029742;28;20030;-70
2023/07/13 00:35:23;;;;;;;3.60;1.30;;;20.90;92.90;;;;;;5030443;28;20356;-69
2023/07/13 00:37:48;;;;;;;2.85;1.30;;;20.90;92.80;;;;;;5029024;28;20030;-70
2023/07/13 00:40:16;;;;;;;3.28;1.27;;;20.80;92.70;;;;;;5029873;28;20026;-69
2023/07/13 00:42:42;;;;;;;3.10;1.33;;;20.80;92.90;;;;;;5062534;28;20043;-70
2023/07/13 00:45:28;;;;;;;4.57;1.55;;;20.80;93.00;;;;;;5028927;28;20022;-70
2023/07/13 00:47:56;;;;;;;5.07;1.80;;;20.70;93.20;;;;;;5029756;28;20341;-70
2023/07/13 00:50:22;;;;;;;3.83;1.30;;;20.70;93.30;;;;;;5030219;28;20467;-71
2023/07/13 00:52:53;;;;;;;3.53;1.17;;;20.70;93.20;;;;;;5030199;28;20037;-70
2023/07/13 00:55:20;;;;;;;1.85;1.33;;;20.70;93.50;;;;;;5030053;28;20044;-69
2023/07/13 00:57:46;;;;;;;7.80;1.55;;;20.70;93.50;;;;;;5029930;28;20069;-69
2023/07/13 01:00:13;;;;;;;1.50;1.10;;;20.60;94.10;;;;;;5029786;28;20029;-70
2023/07/13 01:02:41;;;;;;;6.68;1.95;;;20.60;93.90;;;;;;5030144;28;20022;-70
2023/07/13 01:05:19;;;;;;;3.03;1.08;;;20.50;94.10;;;;;;5030221;28;20017;-69
2023/07/13 01:07:45;;;;;;;;;;;20.50;94.40;;;;;;5030155;28;20685;-71
2023/07/13 01:10:13;;;;;;;5.50;1.48;;;20.40;94.80;;;;;;5029686;28;19960;-69
2023/07/13 01:12:39;;;;;;;4.50;1.52;;;20.50;94.40;;;;;;5029748;28;20029;-69
2023/07/13 01:15:06;;;;;;;5.78;1.45;;;20.50;94.40;;;;;;5029591;28;20036;-70
2023/07/13 01:17:33;;;;;;;8.10;1.92;;;20.30;94.60;;;;;;5029479;28;20032;-69
2023/07/13 01:19:59;;;;;;;4.47;1.63;;;20.30;94.60;;;;;;5030221;28;20044;-68
2023/07/13 01:22:26;;;;;;;5.03;1.45;;;20.20;94.60;;;;;;5029887;28;20110;-69
2023/07/13 01:24:53;;;;;;;4.22;1.70;;;20.20;94.80;;;;;;5029490;28;20106;-70
2023/07/13 01:27:24;;;;;;;4.47;1.60;;;20.20;94.90;;;;;;5028819;28;20496;-69
2023/07/13 01:29:52;;;;;;;2.35;1.38;;;20.20;94.90;;;;;;5029599;28;20041;-69
2023/07/13 01:32:23;;;;;;;3.80;1.63;;;20.20;95.00;;;;;;5032856;28;20032;-70
2023/07/13 01:34:56;;;;;;;3.60;1.70;;;20.10;94.90;;;;;;5033077;28;20046;-70
2023/07/13 01:37:24;;;;;;;5.13;1.80;;;20.10;95.00;;;;;;5072949;28;20020;-70
2023/07/13 01:39:50;;;;;;;3.85;1.75;;;20.10;95.00;;;;;;5073010;28;20037;-70
2023/07/13 01:42:15;;;;;;;7.20;1.75;;;20.00;94.80;;;;;;5072885;28;20043;-69
2023/07/13 01:44:41;;;;;;;3.50;1.73;;;20.00;94.60;;;;;;5072815;28;20048;-70
2023/07/13 01:47:07;;;;;;;5.32;1.83;;;20.00;94.60;;;;;;5073157;28;20387;-69
2023/07/13 01:49:35;;;;;;;4.30;1.63;;;20.00;94.60;;;;;;5072900;28;20291;-70
2023/07/13 01:52:01;;;;;;;4.07;1.70;;;20.00;94.50;;;;;;5071492;28;20131;-69
2023/07/13 01:54:27;;;;;;;5.15;1.40;;;20.10;94.40;;;;;;5072618;28;20115;-69
2023/07/13 01:56:52;;;;;;;2.33;1.52;;;20.10;94.40;;;;;;5072539;28;20347;-69
2023/07/13 01:59:18;;;;;;;3.50;1.30;;;20.00;94.30;;;;;;5071940;28;20032;-70
2023/07/13 02:05:07;;;;;;;2.42;1.25;;;20.10;94.30;;;;;;5046738;28;20442;-69
2023/07/13 02:07:32;;;;;;;6.60;1.98;;;20.10;94.20;;;;;;5052351;28;20044;-70
2023/07/13 02:09:58;;;;;;;4.82;1.77;;;20.10;94.10;;;;;;5063421;28;20025;-70
2023/07/13 02:12:23;;;;;;;6.60;1.60;;;20.00;94.30;;;;;;5071116;28;20047;-69
2023/07/13 02:14:49;;;;;;;4.38;1.67;;;20.00;94.30;;;;;;5072230;28;21836;-70
2023/07/13 02:17:15;;;;;;;5.82;1.65;;;20.00;94.30;;;;;;5072714;28;20501;-68
2023/07/13 02:19:41;;;;;;;7.50;1.60;;;20.00;94.30;;;;;;5071360;28;20047;-70
2023/07/13 02:22:06;;;;;;;7.35;1.95;;;20.00;94.30;;;;;;5072206;28;20029;-69
2023/07/13 02:24:32;;;;;;;5.90;1.80;;;20.10;94.10;;;;;;5072050;28;20367;-69
2023/07/13 02:26:58;;;;;;;4.93;1.30;;;20.00;94.20;;;;;;5071905;28;20107;-69
2023/07/13 02:29:23;;;;;;;5.82;1.70;;;20.00;94.30;;;;;;5071377;28;20362;-69
2023/07/13 02:31:49;;;;;;;6.47;1.85;;;20.00;94.20;;;;;;5071698;28;20092;-69
2023/07/13 02:34:15;;;;;;;5.13;1.55;;;19.90;94.20;;;;;;5071948;28;20056;-70
2023/07/13 02:36:41;;;;;;;4.90;1.67;;;19.90;94.00;;;;;;5071769;28;20032;-70
2023/07/13 02:39:07;;;;;;;5.18;1.90;;;19.90;94.10;;;;;;5071749;28;20106;-70
2023/07/13 02:41:33;;;;;;;2.50;1.45;;;19.90;94.00;;;;;;5071644;28;20103;-70
2023/07/13 02:44:03;;;;;;;7.75;1.95;;;19.80;94.10;;;;;;5070031;28;20028;-70
2023/07/13 02:46:33;;;;;;;5.57;1.65;;;19.80;94.20;;;;;;5070323;28;20285;-70
2023/07/13 02:48:59;;;;;;;5.20;1.60;;;19.80;94.20;;;;;;5071432;28;20033;-71
2023/07/13 02:51:25;;;;;;;5.43;1.42;;;19.80;94.30;;;;;;5071379;28;20051;-70
2023/07/13 02:53:51;;;;;;;6.78;1.40;;;19.80;94.10;;;;;;5071380;28;20020;-71
2023/07/13 02:56:17;;;;;;;3.95;1.42;;;19.80;94.10;;;;;;5071682;28;20024;-70
2023/07/13 02:58:43;;;;;;;3.78;1.70;;;19.80;93.90;;;;;;5071461;28;20366;-70
2023/07/13 03:01:12;;;;;;;5.25;1.65;;;19.80;94.00;;;;;;5070505;28;20025;-70
2023/07/13 03:03:38;;;;;;;4.00;1.42;;;19.70;94.10;;;;;;5071212;28;20051;-70
2023/07/13 03:06:07;;;;;;;4.57;1.80;;;19.60;94.00;;;;;;5071201;28;20179;-71
2023/07/13 03:08:33;;;;;;;7.13;1.60;;;19.50;94.30;;;;;;5071004;28;20458;-70
2023/07/13 03:11:03;;;;;;;4.43;1.63;;;19.50;94.30;;;;;;5071501;28;20035;-71
2023/07/13 03:13:29;;;;;;;5.55;1.50;;;19.50;94.20;;;;;;5069896;28;20025;-70
2023/07/13 03:15:55;;;;;;;10.93;2.60;;;19.50;94.20;;;;;;5071035;28;20101;-70
2023/07/13 03:18:20;;;;;;;5.03;1.77;;;19.50;94.30;;;;;;5069699;28;20451;-70
2023/07/13 03:20:46;;;;;;;6.57;1.40;;;19.60;94.00;;;;;;5070727;28;20095;-69
2023/07/13 03:23:11;;;;;;;7.38;1.55;;;19.60;94.00;;;;;;5071460;28;20031;-69
2023/07/13 03:25:37;;;;;;;8.95;1.83;;;19.60;93.90;;;;;;5070749;28;20043;-69
2023/07/13 03:28:04;;;;;;;4.57;1.75;;;19.60;94.00;;;;;;5070955;28;20476;-70
2023/07/13 03:30:30;;;;;;;3.80;1.77;;;19.50;93.90;;;;;;5070681;28;20044;-70
2023/07/13 03:32:55;;;;;;;4.43;1.65;;;19.50;93.80;;;;;;5070579;28;20327;-71
2023/07/13 03:35:21;;;;;;;6.80;1.55;;;19.50;93.80;;;;;;5071279;28;20086;-69
2023/07/13 03:37:46;;;;;;;5.32;1.65;;;19.50;93.90;;;;;;5070910;28;20039;-72
2023/07/13 03:40:13;;;;;;;4.18;1.40;;;19.50;93.80;;;;;;5071007;28;20052;-70
2023/07/13 03:42:38;;;;;;;5.25;1.67;;;19.50;93.80;;;;;;5070535;28;20506;-69
2023/07/13 03:45:05;;;;;;;4.00;1.45;;;19.40;94.10;;;;;;5070630;28;20202;-70
2023/07/13 03:47:30;;;;;;;4.40;1.50;;;19.40;93.90;;;;;;5070765;28;20029;-70
2023/07/13 03:49:56;;;;;;;7.63;1.70;;;19.40;93.80;;;;;;5070527;28;20089;-71
2023/07/13 03:52:22;;;;;;;5.18;1.48;;;19.30;93.90;;;;;;5070325;28;20040;-70
2023/07/13 03:54:47;;;;;;;7.60;2.25;;;19.40;93.80;;;;;;5069958;28;20028;-70
2023/07/13 03:57:13;;;;;;;6.80;1.58;;;19.30;93.80;;;;;;5070388;28;20029;-71
2023/07/13 03:59:39;;;;;;;6.10;1.30;;;19.40;93.70;;;;;;5070114;28;20419;-70
2023/07/13 04:02:04;;;;;;;6.05;1.77;;;19.50;93.80;;;;;;5069604;28;20230;-70
2023/07/13 04:04:30;;;;;;;3.65;0.98;;;19.50;93.60;;;;;;5070393;28;20056;-71
2023/07/13 04:06:58;;;;;;;7.63;1.83;;;19.50;93.60;;;;;;5069213;28;20032;-71
2023/07/13 04:09:24;;;;;;;8.07;1.60;;;19.50;93.60;;;;;;5070326;28;20025;-70
2023/07/13 04:11:50;;;;;;;4.78;1.38;;;19.50;93.60;;;;;;5070152;28;20055;-71
2023/07/13 04:14:16;;;;;;;5.47;1.83;;;19.50;93.50;;;;;;5070575;28;20450;-71
2023/07/13 04:16:42;;;;;;;10.98;3.78;;;19.60;93.50;;;;;;5069318;28;20052;-71
2023/07/13 04:19:10;;;;;;;8.10;3.63;;;19.60;93.40;;;;;;5070231;28;20036;-70
2023/07/13 04:21:36;;;;;;;7.82;3.10;;;19.60;93.50;;;;;;5070236;28;20090;-70
2023/07/13 04:24:03;;;;;;;8.02;1.85;;;19.60;93.50;;;;;;5069986;28;20025;-70
2023/07/13 04:26:30;;;;;;;5.63;1.83;;;19.50;93.60;;;;;;5070368;28;20078;-71
2023/07/13 04:28:56;;;;;;;7.82;2.10;;;19.60;93.70;;;;;;5070012;28;20028;-71
2023/07/13 04:31:22;;;;;;;7.90;1.80;;;19.60;93.60;;;;;;5069986;28;20036;-70
2023/07/13 04:33:48;;;;;;;5.63;1.60;;;19.60;93.70;;;;;;5069806;28;20583;-70
2023/07/13 04:36:16;;;;;;;7.90;1.85;;;19.50;93.60;;;;;;5070317;28;20024;-70
2023/07/13 04:38:41;;;;;;;6.80;1.70;;;19.50;93.70;;;;;;5069994;28;20028;-69
2023/07/13 04:41:08;;;;;;;3.97;1.65;;;19.60;93.70;;;;;;5070377;28;20032;-71
2023/07/13 04:43:35;;;;;;;6.55;1.83;;;19.60;93.80;;;;;;5070328;28;20078;-70
2023/07/13 04:46:07;;;;;;;6.35;1.40;;;19.50;93.60;;;;;;5069701;28;20044;-69
2023/07/13 04:48:34;;;;;;;3.65;1.45;;;19.50;93.70;;;;;;5070104;28;20032;-70
2023/07/13 04:51:01;;;;;;;7.22;1.73;;;19.40;93.80;;;;;;5069742;28;20059;-70
2023/07/13 04:53:28;;;;;;;7.45;1.80;;;19.50;93.80;;;;;;5070378;28;20029;-70
2023/07/13 04:55:53;;;;;;;6.50;1.67;;;19.50;93.80;;;;;;5069844;28;20048;-70
2023/07/13 04:58:19;;;;;;;5.80;1.70;;;19.40;93.80;;;;;;5069834;28;20033;-70
2023/07/13 05:00:45;;;;;;;5.30;1.52;;;19.50;93.80;;;;;;5069745;28;20036;-70
2023/07/13 05:03:10;;;;;;;8.00;1.92;;;19.50;93.90;;;;;;5069780;28;20177;-70
2023/07/13 05:05:36;;;;;;;7.03;1.90;;;19.50;93.80;;;;;;5070129;28;20024;-69
2023/07/13 05:08:02;;;;;;;4.95;1.42;;;19.50;93.90;;;;;;5073870;28;20374;-69
2023/07/13 05:10:28;;;;;;;6.78;1.88;;;19.60;93.90;;;;;;5073369;28;20111;-70
2023/07/13 05:12:53;;;;;;;13.07;2.20;;;19.60;93.70;;;;;;5073452;28;20028;-70
2023/07/13 05:15:22;;;;;;;5.13;1.95;;;19.60;93.70;;;;;;5073328;28;20027;-70
2023/07/13 05:17:49;;;;;;;9.45;2.55;;;19.60;93.80;;;;;;5073256;28;20024;-70
2023/07/13 05:20:16;;;;;;;10.23;2.22;;;19.70;93.80;;;;;;5073703;28;20379;-71
2023/07/13 05:22:42;;;;;;;10.45;2.17;;;19.70;93.80;;;;;;5073132;28;20035;-69
2023/07/13 05:25:08;;;;;;;11.23;1.73;;;19.70;93.70;;;;;;5071997;28;20071;-69
2023/07/13 05:27:35;;;;;;;7.70;1.48;;;19.70;93.60;;;;;;5073249;28;20374;-69
2023/07/13 05:30:02;;;;;;;6.35;2.00;;;19.80;93.60;;;;;;5073369;28;20089;-69
2023/07/13 05:32:28;;;;;;;6.53;1.83;;;19.80;93.40;;;;;;5073337;28;20035;-70
2023/07/13 05:34:53;;;;;;;4.88;1.60;;;19.80;93.30;;;;;;5072746;28;20048;-70
2023/07/13 05:37:19;;;;;;;9.65;1.60;;;19.80;93.20;;;;;;5073186;28;20135;-69
2023/07/13 05:39:44;;;;;;;3.63;1.63;;;19.80;93.20;;;;;;5072821;28;20446;-70
2023/07/13 05:42:10;;;;;;;8.93;2.03;;;19.80;93.30;;;;;;5058412;28;20068;-70
2023/07/13 05:44:36;;;;;;;9.43;1.80;;;19.80;93.30;;;;;;5032831;28;20452;-70
2023/07/13 05:47:01;;;;;;;5.82;1.75;;;19.70;93.40;;;;;;5033545;28;20104;-69
2023/07/13 05:49:27;;;;;;;9.93;2.35;;;19.80;93.30;;;;;;5032808;28;20257;-70
2023/07/13 05:51:52;;;;;;;5.15;1.65;;;19.60;93.40;;;;;;5032630;28;20045;-70
2023/07/13 05:54:18;;;;;;;10.02;1.67;;;19.80;93.40;;;;;;5032638;28;20025;-70
2023/07/13 05:56:44;;;;;;;10.60;2.03;;;19.80;93.40;;;;;;5031430;28;20029;-69
2023/07/13 05:59:10;;;;;;;6.78;1.52;;;19.90;93.40;;;;;;5033250;28;20031;-70
2023/07/13 06:01:35;;;;;;;8.10;1.70;;;20.00;93.30;;;;;;5031493;28;20470;-69
2023/07/13 06:04:01;;;;;;;5.63;1.70;;;19.90;93.50;;;;;;5032494;28;20030;-68
2023/07/13 06:06:27;;;;;;;11.30;2.20;;;19.90;93.60;;;;;;5032518;28;20030;-68
2023/07/13 06:08:53;;;;;;;5.70;1.73;;;20.00;93.60;;;;;;5032436;28;20026;-68
2023/07/13 06:11:22;;;;;;;10.80;2.17;;;20.00;93.60;;;;;;5031605;28;20036;-68
2023/07/13 06:13:47;;;;;;;11.02;2.33;;;20.10;93.60;;;;;;5032382;28;20036;-69
2023/07/13 06:16:14;;;;;;;11.57;2.20;;;20.10;93.50;;;;;;5032376;28;20030;-68
2023/07/13 06:18:41;;;;;;;8.48;2.10;;;20.10;93.30;;;;;;5032388;28;20029;-68
2023/07/13 06:21:08;;;;;;;10.60;1.88;;;20.10;93.40;;;;;;5032294;28;20022;-69
2023/07/13 06:23:34;;;;;;;15.70;2.78;;;20.10;93.40;;;;;;5048000;28;20470;-68
2023/07/13 06:25:59;;;;;;;6.35;1.90;;;20.20;93.10;;;;;;5032664;28;20096;-68
2023/07/13 06:28:25;;;;;;;10.93;2.28;;;20.30;92.90;;;;;;5031836;28;20039;-70
2023/07/13 06:30:51;;;;;;;11.27;2.00;;;20.30;92.80;;;;;;5030692;28;20160;-68
2023/07/13 06:33:16;;;;;;;15.98;7.10;;;20.30;92.70;;;;;;5047204;28;20041;-68
2023/07/13 06:35:42;;;;;;;14.45;3.08;;;20.30;92.80;;;;;;5047622;28;20087;-67
2023/07/13 06:38:08;;;;;;;11.07;3.30;;;20.40;92.70;;;;;;5032664;28;20018;-68
2023/07/13 06:40:34;;;;;;;10.63;2.03;;;20.50;92.70;;;;;;5031927;28;20486;-68
2023/07/13 06:43:00;;;;;;;12.85;1.92;;;20.60;92.40;;;;;;5030691;28;20435;-67
2023/07/13 06:45:25;;;;;;;5.90;2.00;;;20.60;92.60;;;;;;5031610;28;20368;-68
2023/07/13 06:47:51;;;;;;;5.07;2.17;;;20.60;92.30;;;;;;5030628;28;20459;-69
2023/07/13 06:50:16;;;;;;;8.40;2.50;;;20.70;92.20;;;;;;5031046;28;20040;-69
2023/07/13 06:52:42;;;;;;;9.73;1.92;;;20.80;92.00;;;;;;5031632;28;20049;-67
2023/07/13 06:55:08;;;;;;;7.45;2.10;;;20.60;91.80;;;;;;5031770;28;20036;-68
2023/07/13 06:57:34;;;;;;;8.90;2.33;;;20.60;91.80;;;;;;5031314;28;20511;-68
2023/07/13 06:59:59;;;;;;;7.88;2.00;;;20.60;91.80;;;;;;5031650;28;20117;-68
2023/07/13 07:02:25;;;;;;;7.15;2.15;;;20.60;91.90;;;;;;5031793;28;20091;-69
2023/07/13 07:04:51;;;;;;;8.95;2.20;;;20.60;91.90;;;;;;5031188;28;20479;-68
2023/07/13 07:07:16;;;;;;;13.15;1.80;;;20.50;91.90;;;;;;5031502;28;20033;-69
2023/07/13 07:09:42;;;;;;;5.80;2.10;;;20.70;91.80;;;;;;5031385;28;20108;-68
2023/07/13 07:12:08;;;;;;;9.15;2.00;;;20.80;91.70;;;;;;5031223;28;20400;-68
2023/07/13 07:14:34;;;;;;;7.72;1.25;;;20.90;91.50;;;;;;5031089;28;20025;-68
2023/07/13 07:17:00;;;;;;;10.00;2.45;;;20.90;91.50;;;;;;5047144;28;20017;-68
2023/07/13 07:19:30;;;;;;;7.80;1.50;;;21.00;91.20;;;;;;5031099;28;20490;-68
2023/07/13 07:21:56;;;;;;;5.63;1.52;;;20.90;91.30;;;;;;5046610;28;20144;-67
2023/07/13 07:24:21;;;;;;;9.52;1.77;;;21.00;91.40;;;;;;5046253;28;20040;-68
2023/07/13 07:26:47;;;;;;;6.55;1.60;;;21.00;91.40;;;;;;5031017;28;20034;-68
2023/07/13 07:29:13;;;;;;;6.00;2.28;;;21.00;91.20;;;;;;5031114;28;20025;-68
2023/07/13 07:31:38;;;;;;;8.43;1.83;;;21.10;91.10;;;;;;5030889;28;20029;-69
2023/07/13 07:34:04;;;;;;;9.98;2.05;;;21.00;91.10;;;;;;5030701;28;20140;-68
2023/07/13 07:36:29;;;;;;;5.78;1.60;;;21.00;91.00;;;;;;5030821;28;20170;-68
2023/07/13 07:38:55;;;;;;;5.43;1.52;;;20.90;91.10;;;;;;5029893;28;20040;-68
2023/07/13 07:41:21;;;;;;;8.40;2.25;;;21.00;90.90;;;;;;5046949;28;20627;-68
2023/07/13 07:43:47;;;;;;;11.77;1.90;;;21.10;90.90;;;;;;5030856;28;20037;-68
2023/07/13 07:46:12;;;;;;;7.25;2.00;;;21.00;90.80;;;;;;5046123;28;20036;-67
2023/07/13 07:48:38;;;;;;;9.18;2.10;;;21.20;90.90;;;;;;5030587;28;20052;-69
2023/07/13 07:51:04;;;;;;;6.80;1.67;;;21.20;90.80;;;;;;5030518;28;20482;-69
2023/07/13 07:53:30;;;;;;;5.85;1.55;;;21.40;91.00;;;;;;5046458;28;20047;-69
2023/07/13 07:55:56;;;;;;;28.92;13.80;;;21.30;90.80;;;;;;5030591;28;20033;-67
2023/07/13 07:58:22;;;;;;;5.70;2.13;;;21.30;90.90;;;;;;5029656;28;20044;-67
2023/07/13 08:00:47;;;;;;;7.22;1.70;;;21.10;90.70;;;;;;5030515;28;20482;-68
2023/07/13 08:03:13;;;;;;;10.57;1.88;;;20.90;90.90;;;;;;5029364;28;20025;-68
2023/07/13 08:05:38;;;;;;;6.30;2.17;;;21.00;91.00;;;;;;5029369;28;20025;-68
2023/07/13 08:08:04;;;;;;;6.68;1.95;;;21.10;90.90;;;;;;5030943;28;20017;-68
2023/07/13 08:10:30;;;;;;;6.40;2.08;;;21.20;90.90;;;;;;5030169;28;20111;-68
2023/07/13 08:12:56;;;;;;;6.40;1.40;;;21.30;90.80;;;;;;5030481;28;20042;-69
2023/07/13 08:15:22;;;;;;;11.98;1.92;;;21.40;90.80;;;;;;5030363;28;20452;-68
2023/07/13 08:17:48;;;;;;;9.02;2.00;;;21.30;90.70;;;;;;5030413;28;20115;-69
2023/07/13 08:20:15;;;;;;;3.83;1.35;;;21.10;90.80;;;;;;5030743;28;20026;-69
2023/07/13 08:22:40;;;;;;;6.70;1.63;;;21.30;90.90;;;;;;5029159;28;20068;-69
2023/07/13 08:25:06;;;;;;;4.53;1.35;;;21.40;90.70;;;;;;5045776;28;20057;-68
2023/07/13 08:27:33;;;;;;;9.05;1.98;;;21.70;90.60;;;;;;5030128;28;20050;-68
2023/07/13 08:29:58;;;;;;;7.25;2.60;;;21.80;90.40;;;;;;5030065;28;20508;-67
2023/07/13 08:32:25;;;;;;;8.73;2.38;;;21.80;90.30;;;;;;5030614;28;20121;-68
2023/07/13 08:34:51;;;;;;;6.20;1.75;;;21.80;90.10;;;;;;5029829;28;20136;-68
2023/07/13 08:37:18;;;;;;;7.53;2.35;;;21.70;90.40;;;;;;5029920;28;20103;-67
2023/07/13 08:39:43;;;;;;;5.85;1.55;;;21.80;90.40;;;;;;5030024;28;20432;-69
2023/07/13 08:42:18;;;;;;;7.80;2.00;;;21.80;90.40;;;;;;5033061;28;20057;-68
2023/07/13 08:45:08;;;;;;;4.97;1.38;;;21.90;90.30;;;;;;5033932;28;20029;-69
2023/07/13 08:47:37;;;;;;;9.82;1.63;;;22.00;90.40;;;;;;5033843;28;20013;-68
2023/07/13 08:50:04;;;;;;;8.18;2.33;;;22.50;90.20;;;;;;5034482;28;20017;-67
2023/07/13 08:52:39;;;;;;;6.47;1.55;;;23.20;89.10;;;;;;5033677;28;20047;-68
2023/07/13 08:55:31;;;;;;;11.95;1.63;;;24.10;86.50;;;;;;5033684;28;20045;-67
2023/07/13 08:58:15;;;;;;;11.82;2.03;;;24.40;84.90;;;;;;5027224;28;20535;-69
2023/07/13 09:00:51;;;;;;;8.50;1.83;;;24.20;85.00;;;;;;5032408;28;20033;-69
2023/07/13 09:03:22;;;;;;;10.07;1.80;;;24.70;85.20;;;;;;5033602;28;20030;-69
2023/07/13 09:05:54;;;;;;;8.30;1.55;;;25.20;83.10;;;;;;5033735;28;20033;-68
2023/07/13 09:08:42;;;;;;;7.32;1.85;;;25.60;82.20;;;;;;5034252;28;20018;-68
2023/07/13 09:11:21;;;;;;;9.20;2.00;;;25.30;82.40;;;;;;5033762;28;20128;-68
2023/07/13 09:14:01;;;;;;;6.05;1.67;;;25.10;82.00;;;;;;5033675;28;20107;-68
2023/07/13 09:16:27;;;;;;;5.03;1.65;;;25.20;81.30;;;;;;5033435;28;20030;-69
2023/07/13 09:19:02;;;;;;;7.68;2.03;;;25.10;81.80;;;;;;5033565;28;20095;-70
2023/07/13 09:21:36;;;;;;;7.57;1.63;;;25.00;81.00;;;;;;5033512;28;20108;-69
2023/07/13 09:24:36;;;;;;;6.38;1.73;;;24.80;81.90;;;;;;5033528;28;20117;-69
2023/07/13 09:27:24;;;;;;;7.25;2.15;;;24.90;81.80;;;;;;5033339;28;20029;-69
2023/07/13 09:30:22;;;;;;;3.10;1.58;;;24.10;83.30;;;;;;5029088;28;20041;-69
2023/07/13 09:32:52;;;;;;;8.43;1.30;;;24.60;83.30;;;;;;5033070;28;20128;-70
2023/07/13 09:35:22;;;;;;;6.47;2.00;;;24.90;81.70;;;;;;5033482;28;20361;-70
2023/07/13 09:37:48;;;;;;;7.20;1.35;;;25.00;80.80;;;;;;5032936;28;20497;-70
2023/07/13 09:40:25;;;;;;;8.52;1.58;;;25.50;80.60;;;;;;5033197;28;20402;-71
2023/07/13 09:42:54;;;;;;;8.25;2.25;;;25.60;79.70;;;;;;5031848;28;20113;-68
2023/07/13 09:45:29;;;;;;;7.68;1.70;;;25.40;79.60;;;;;;5032697;28;20323;-68
2023/07/13 09:48:16;;;;;;;8.13;1.55;;;25.40;79.40;;;;;;5032803;28;20455;-69
2023/07/13 09:50:42;;;;;;;5.40;1.55;;;25.00;80.10;;;;;;5031955;28;20041;-69
2023/07/13 09:53:19;;;;;;;5.45;1.48;;;24.50;80.50;;;;;;5032677;28;20570;-69
2023/07/13 09:55:48;;;;;;;6.70;1.40;;;24.40;80.30;;;;;;5032699;28;20039;-70
2023/07/13 09:58:19;;;;;;;9.10;2.45;;;24.20;80.40;;;;;;5032715;28;20255;-69
2023/07/13 10:00:58;;;;;;;6.93;1.60;;;24.40;80.50;;;;;;5032636;28;20091;-69
2023/07/13 10:03:27;;;;;;;11.85;1.75;;;24.40;79.90;;;;;;5048191;28;20029;-69
2023/07/13 10:05:54;;;;;;;3.67;1.33;;;24.40;80.40;;;;;;5032470;28;20404;-69
2023/07/13 10:08:30;;;;;;;5.45;1.70;;;24.70;80.20;;;;;;5031866;28;20081;-69
2023/07/13 10:11:08;;;;;;;3.88;1.45;;;24.60;79.80;;;;;;5032364;28;20057;-69
2023/07/13 10:13:36;;;;;;;;;;;24.90;80.00;;;;;;5032788;28;20040;-69
2023/07/13 10:16:05;;;;;;;4.78;1.35;;;24.90;79.10;;;;;;5032201;28;19913;-69
2023/07/13 10:18:43;;;;;;;4.38;1.33;;;24.80;78.70;;;;;;5048078;28;20045;-69
2023/07/13 10:21:13;;;;;;;4.15;1.27;;;24.70;78.10;;;;;;5032347;28;20114;-70
2023/07/13 10:23:39;;;;;;;3.33;1.13;;;24.70;77.70;;;;;;5032107;28;20033;-68
2023/07/13 10:26:15;;;;;;;3.17;1.17;;;24.90;78.40;;;;;;5032802;28;20084;-69
2023/07/13 10:28:45;;;;;;;5.32;1.52;;;25.00;78.20;;;;;;5032258;28;20099;-68
2023/07/13 10:31:15;;;;;;;4.70;1.20;;;25.20;77.50;;;;;;5032142;28;20398;-69
2023/07/13 10:33:41;;;;;;;3.20;1.38;;;25.10;77.20;;;;;;5031942;28;20053;-69
2023/07/13 10:36:29;;;;;;;6.15;1.42;;;25.10;77.80;;;;;;5031989;28;20025;-69
2023/07/13 10:38:57;;;;;;;5.45;1.48;;;25.10;78.00;;;;;;5032119;28;20091;-69
2023/07/13 10:41:25;;;;;;;4.18;1.60;;;25.30;77.50;;;;;;5032238;28;20052;-69
2023/07/13 10:43:54;;;;;;;6.53;1.42;;;25.10;75.80;;;;;;5031860;28;20033;-68
2023/07/13 10:46:26;;;;;;;5.13;1.95;;;25.10;75.80;;;;;;5032114;28;20041;-68
2023/07/13 10:48:57;;;;;;;4.78;1.50;;;25.10;75.70;;;;;;5032002;28;20121;-68
2023/07/13 10:51:23;;;;;;;4.80;1.60;;;24.90;75.60;;;;;;5047225;28;20034;-69
2023/07/13 10:54:18;;;;;;;2.78;1.58;;;25.10;75.20;;;;;;5031771;28;20534;-69
2023/07/13 10:56:45;;;;;;;3.83;1.20;;;25.20;74.70;;;;;;5031668;28;20025;-68
2023/07/13 10:59:18;;;;;;;6.30;1.70;;;24.90;74.10;;;;;;5032289;28;20104;-69
2023/07/13 11:02:22;;;;;;;7.50;1.70;;;25.00;74.80;;;;;;5047069;28;20025;-69
2023/07/13 11:04:49;;;;;;;5.25;1.80;;;24.90;75.60;;;;;;5027141;28;20032;-69
2023/07/13 11:07:51;;;;;;;16.10;7.73;;;24.70;75.90;;;;;;5031294;28;20029;-68
2023/07/13 11:10:46;;;;;;;4.00;1.40;;;25.00;76.10;;;;;;5031357;28;20255;-69
2023/07/13 11:13:50;;;;;;;5.30;1.60;;;25.10;75.80;;;;;;5030960;28;20539;-70
2023/07/13 11:16:24;;;;;;;4.75;1.70;;;25.00;75.70;;;;;;5031224;28;20038;-69
2023/07/13 11:19:09;;;;;;;6.07;1.77;;;24.70;75.70;;;;;;5046713;28;20040;-69
2023/07/13 11:21:35;;;;;;;9.68;2.08;;;24.60;76.20;;;;;;5031032;28;20076;-69
2023/07/13 11:24:14;;;;;;;5.35;1.50;;;24.40;76.80;;;;;;5031097;28;20033;-70
2023/07/13 11:26:39;;;;;;;5.60;1.50;;;24.60;76.90;;;;;;5030874;28;20025;-69
2023/07/13 11:29:31;;;;;;;7.07;1.83;;;24.50;76.90;;;;;;5031481;28;20028;-68
2023/07/13 11:32:01;;;;;;;7.60;1.52;;;24.50;77.00;;;;;;5010587;28;20456;-69
2023/07/13 11:34:34;;;;;;;4.90;1.67;;;24.30;77.70;;;;;;5026717;28;20052;-69
2023/07/13 11:37:01;;;;;;;4.38;1.20;;;24.50;77.70;;;;;;5018882;28;20026;-69
2023/07/13 11:39:33;;;;;;;2.80;1.43;;;24.70;77.30;;;;;;5018685;28;20025;-69
2023/07/13 11:42:12;;;;;;;4.63;2.20;;;24.80;77.00;;;;;;5030865;28;20048;-69
2023/07/13 11:44:43;;;;;;;4.65;1.63;;;25.10;76.40;;;;;;5030424;28;20018;-69
2023/07/13 11:47:17;;;;;;;8.20;1.50;;;25.30;75.70;;;;;;5031102;28;20440;-69
2023/07/13 11:49:47;;;;;;;3.90;1.50;;;25.40;75.20;;;;;;5030765;28;20056;-69
2023/07/13 11:52:26;;;;;;;8.55;1.50;;;25.40;73.70;;;;;;5030584;28;20045;-69
2023/07/13 11:54:57;;;;;;;9.35;1.27;;;25.50;74.00;;;;;;5030541;28;20060;-69
2023/07/13 11:57:33;;;;;;;4.15;1.17;;;25.40;74.20;;;;;;5030454;28;20095;-69
2023/07/13 12:00:16;;;;;;;5.55;2.50;;;25.40;74.60;;;;;;5030609;28;20109;-69
2023/07/13 12:02:45;;;;;;;4.80;1.70;;;25.60;72.90;;;;;;5030203;28;20357;-69
2023/07/13 12:05:17;;;;;;;3.95;1.35;;;25.80;72.90;;;;;;5030717;28;20484;-69
2023/07/13 12:07:44;;;;;;;5.47;1.70;;;25.60;72.50;;;;;;5030457;28;20406;-70
2023/07/13 12:10:30;;;;;;;2.75;1.30;;;25.50;72.60;;;;;;5030323;28;20504;-68
2023/07/13 12:12:57;;;;;;;4.63;1.92;;;25.70;72.10;;;;;;5030341;28;20401;-69
2023/07/13 12:15:28;;;;;;;3.90;1.40;;;25.80;70.30;;;;;;5030080;28;20037;-69
2023/07/13 12:17:56;;;;;;;7.78;2.20;;;25.80;70.40;;;;;;5030146;28;20255;-68
2023/07/13 12:20:26;;;;;;;8.57;1.65;;;25.80;70.40;;;;;;5030668;28;20363;-69
2023/07/13 12:22:53;;;;;;;7.22;2.03;;;25.80;70.40;;;;;;5030345;28;20040;-69
2023/07/13 12:25:20;;;;;;;5.40;1.75;;;25.90;70.80;;;;;;5030112;28;20061;-70
2023/07/13 12:27:50;;;;;;;2.92;1.30;;;26.00;70.80;;;;;;5030048;28;20044;-70
2023/07/13 12:30:30;;;;;;;4.50;1.67;;;26.00;70.50;;;;;;5029918;28;20099;-70
2023/07/13 12:33:02;;;;;;;7.43;1.48;;;26.10;70.50;;;;;;5029916;28;20384;-70
2023/07/13 12:35:30;;;;;;;3.83;1.67;;;26.00;69.50;;;;;;5030374;28;20301;-70
2023/07/13 12:38:00;;;;;;;4.15;1.50;;;25.90;69.70;;;;;;5030073;28;20091;-69
2023/07/13 12:40:32;;;;;;;3.80;1.38;;;25.60;70.70;;;;;;5029861;28;20033;-70
2023/07/13 12:42:59;;;;;;;5.22;1.83;;;25.40;71.60;;;;;;5030090;28;20483;-69
2023/07/13 12:45:30;;;;;;;3.42;1.23;;;25.60;72.00;;;;;;5029820;28;20095;-69
2023/07/13 12:48:04;;;;;;;4.07;1.20;;;25.40;71.20;;;;;;5029852;28;20037;-69
2023/07/13 12:50:42;;;;;;;4.90;1.42;;;25.50;70.80;;;;;;5030554;28;20451;-69
2023/07/13 12:53:22;;;;;;;;;;;25.60;70.40;;;;;;5030724;28;20025;-69
2023/07/13 12:55:49;;;;;;;5.00;1.80;;;25.60;70.00;;;;;;5029986;28;19909;-69
2023/07/13 12:58:45;;;;;;;4.68;1.50;;;25.50;70.70;;;;;;5029813;28;20060;-69